sensor_id;sensor_type;location;lat;lon;timestamp;P1;durP1;ratioP1;P2;durP2;ratioP2
48534;SDS011;34323;52.022;5.686;2023-12-04T00:01:49;24.67;;;11.55;;
48534;SDS011;34323;52.022;5.686;2023-12-04T00:04:15;25.08;;;12.05;;
48534;SDS011;34323;52.022;5.686;2023-12-04T00:06:41;28.73;;;12.52;;
48534;SDS011;34323;52.022;5.686;2023-12-04T00:09:07;26.92;;;13.15;;
48534;SDS011;34323;52.022;5.686;2023-12-04T00:11:33;27.42;;;13.52;;
48534;SDS011;34323;52.022;5.686;2023-12-04T00:13:59;26.38;;;12.88;;
48534;SDS011;34323;52.022;5.686;2023-12-04T00:16:25;28.48;;;13.18;;
48534;SDS011;34323;52.022;5.686;2023-12-04T00:18:51;24.08;;;13.18;;
48534;SDS011;34323;52.022;5.686;2023-12-04T00:21:16;28.08;;;12.93;;
48534;SDS011;34323;52.022;5.686;2023-12-04T00:23:42;28.20;;;14.43;;
48534;SDS011;34323;52.022;5.686;2023-12-04T00:26:08;29.42;;;14.32;;
48534;SDS011;34323;52.022;5.686;2023-12-04T00:28:36;28.50;;;12.68;;
48534;SDS011;34323;52.022;5.686;2023-12-04T00:31:02;29.58;;;14.65;;
48534;SDS011;34323;52.022;5.686;2023-12-04T00:33:28;29.98;;;13.75;;
48534;SDS011;34323;52.022;5.686;2023-12-04T00:35:53;25.42;;;13.60;;
48534;SDS011;34323;52.022;5.686;2023-12-04T00:38:19;27.10;;;14.55;;
48534;SDS011;34323;52.022;5.686;2023-12-04T00:40:44;25.50;;;13.10;;
48534;SDS011;34323;52.022;5.686;2023-12-04T00:43:10;25.92;;;13.85;;
48534;SDS011;34323;52.022;5.686;2023-12-04T00:45:36;26.42;;;14.20;;
48534;SDS011;34323;52.022;5.686;2023-12-04T00:48:02;26.67;;;14.00;;
48534;SDS011;34323;52.022;5.686;2023-12-04T00:50:27;27.55;;;13.77;;
48534;SDS011;34323;52.022;5.686;2023-12-04T00:52:53;27.50;;;13.35;;
48534;SDS011;34323;52.022;5.686;2023-12-04T00:55:19;24.73;;;12.50;;
48534;SDS011;34323;52.022;5.686;2023-12-04T00:57:45;28.77;;;13.77;;
48534;SDS011;34323;52.022;5.686;2023-12-04T01:00:11;28.00;;;13.63;;
48534;SDS011;34323;52.022;5.686;2023-12-04T01:02:37;28.70;;;14.35;;
48534;SDS011;34323;52.022;5.686;2023-12-04T01:05:03;29.58;;;13.80;;
48534;SDS011;34323;52.022;5.686;2023-12-04T01:07:29;30.15;;;12.63;;
48534;SDS011;34323;52.022;5.686;2023-12-04T01:09:54;27.13;;;13.38;;
48534;SDS011;34323;52.022;5.686;2023-12-04T01:12:20;31.00;;;14.13;;
48534;SDS011;34323;52.022;5.686;2023-12-04T01:14:46;29.15;;;14.70;;
48534;SDS011;34323;52.022;5.686;2023-12-04T01:17:12;30.08;;;14.25;;
48534;SDS011;34323;52.022;5.686;2023-12-04T01:19:38;25.40;;;12.77;;
48534;SDS011;34323;52.022;5.686;2023-12-04T01:22:04;32.00;;;15.18;;
48534;SDS011;34323;52.022;5.686;2023-12-04T01:24:30;27.40;;;13.23;;
48534;SDS011;34323;52.022;5.686;2023-12-04T01:26:56;33.95;;;14.77;;
48534;SDS011;34323;52.022;5.686;2023-12-04T01:29:22;30.48;;;14.60;;
48534;SDS011;34323;52.022;5.686;2023-12-04T01:31:47;29.20;;;15.15;;
48534;SDS011;34323;52.022;5.686;2023-12-04T01:34:13;30.70;;;14.45;;
48534;SDS011;34323;52.022;5.686;2023-12-04T01:36:41;31.52;;;14.95;;
48534;SDS011;34323;52.022;5.686;2023-12-04T01:39:07;30.30;;;13.35;;
48534;SDS011;34323;52.022;5.686;2023-12-04T01:41:33;31.40;;;13.50;;
48534;SDS011;34323;52.022;5.686;2023-12-04T01:43:59;30.08;;;13.63;;
48534;SDS011;34323;52.022;5.686;2023-12-04T01:46:24;32.33;;;14.35;;
48534;SDS011;34323;52.022;5.686;2023-12-04T01:48:50;26.17;;;13.00;;
48534;SDS011;34323;52.022;5.686;2023-12-04T01:51:17;26.33;;;12.55;;
48534;SDS011;34323;52.022;5.686;2023-12-04T01:53:45;31.60;;;14.32;;
48534;SDS011;34323;52.022;5.686;2023-12-04T01:56:13;30.38;;;13.25;;
48534;SDS011;34323;52.022;5.686;2023-12-04T01:58:41;31.50;;;12.32;;
48534;SDS011;34323;52.022;5.686;2023-12-04T02:01:07;25.88;;;13.40;;
48534;SDS011;34323;52.022;5.686;2023-12-04T02:03:32;31.98;;;14.02;;
48534;SDS011;34323;52.022;5.686;2023-12-04T02:05:59;25.98;;;12.65;;
48534;SDS011;34323;52.022;5.686;2023-12-04T02:08:26;26.25;;;13.00;;
48534;SDS011;34323;52.022;5.686;2023-12-04T02:10:52;28.70;;;12.65;;
48534;SDS011;34323;52.022;5.686;2023-12-04T02:13:17;32.28;;;13.63;;
48534;SDS011;34323;52.022;5.686;2023-12-04T02:15:44;25.17;;;12.45;;
48534;SDS011;34323;52.022;5.686;2023-12-04T02:18:11;29.75;;;13.85;;
48534;SDS011;34323;52.022;5.686;2023-12-04T02:20:37;26.67;;;12.35;;
48534;SDS011;34323;52.022;5.686;2023-12-04T02:23:03;28.90;;;14.18;;
48534;SDS011;34323;52.022;5.686;2023-12-04T02:25:31;30.38;;;12.90;;
48534;SDS011;34323;52.022;5.686;2023-12-04T02:27:59;26.60;;;12.65;;
48534;SDS011;34323;52.022;5.686;2023-12-04T02:30:27;23.17;;;12.70;;
48534;SDS011;34323;52.022;5.686;2023-12-04T02:32:55;22.52;;;12.00;;
48534;SDS011;34323;52.022;5.686;2023-12-04T02:35:24;23.63;;;12.05;;
48534;SDS011;34323;52.022;5.686;2023-12-04T02:37:54;24.80;;;11.90;;
48534;SDS011;34323;52.022;5.686;2023-12-04T02:40:23;26.70;;;10.63;;
48534;SDS011;34323;52.022;5.686;2023-12-04T02:42:49;24.15;;;11.75;;
48534;SDS011;34323;52.022;5.686;2023-12-04T02:45:15;23.95;;;12.43;;
48534;SDS011;34323;52.022;5.686;2023-12-04T02:47:40;24.48;;;12.88;;
48534;SDS011;34323;52.022;5.686;2023-12-04T02:50:06;26.88;;;11.93;;
48534;SDS011;34323;52.022;5.686;2023-12-04T02:52:32;24.33;;;12.02;;
48534;SDS011;34323;52.022;5.686;2023-12-04T02:54:58;23.73;;;12.00;;
48534;SDS011;34323;52.022;5.686;2023-12-04T02:57:23;21.85;;;11.73;;
48534;SDS011;34323;52.022;5.686;2023-12-04T02:59:49;22.00;;;10.63;;
48534;SDS011;34323;52.022;5.686;2023-12-04T03:02:14;21.67;;;11.38;;
48534;SDS011;34323;52.022;5.686;2023-12-04T03:04:40;23.67;;;11.73;;
48534;SDS011;34323;52.022;5.686;2023-12-04T03:07:06;19.85;;;11.13;;
48534;SDS011;34323;52.022;5.686;2023-12-04T03:09:31;25.75;;;10.63;;
48534;SDS011;34323;52.022;5.686;2023-12-04T03:11:57;23.08;;;11.43;;
48534;SDS011;34323;52.022;5.686;2023-12-04T03:14:23;19.00;;;10.63;;
48534;SDS011;34323;52.022;5.686;2023-12-04T03:16:49;21.23;;;11.20;;
48534;SDS011;34323;52.022;5.686;2023-12-04T03:19:15;23.33;;;10.60;;
48534;SDS011;34323;52.022;5.686;2023-12-04T03:21:40;20.50;;;9.98;;
48534;SDS011;34323;52.022;5.686;2023-12-04T03:24:06;20.70;;;10.27;;
48534;SDS011;34323;52.022;5.686;2023-12-04T03:26:32;20.83;;;10.68;;
48534;SDS011;34323;52.022;5.686;2023-12-04T03:28:58;19.55;;;10.48;;
48534;SDS011;34323;52.022;5.686;2023-12-04T03:31:24;21.08;;;10.52;;
48534;SDS011;34323;52.022;5.686;2023-12-04T03:33:50;21.02;;;10.70;;
48534;SDS011;34323;52.022;5.686;2023-12-04T03:36:16;22.13;;;10.68;;
48534;SDS011;34323;52.022;5.686;2023-12-04T03:38:41;22.70;;;10.68;;
48534;SDS011;34323;52.022;5.686;2023-12-04T03:41:14;19.25;;;10.55;;
48534;SDS011;34323;52.022;5.686;2023-12-04T03:43:40;18.90;;;9.93;;
48534;SDS011;34323;52.022;5.686;2023-12-04T03:46:06;21.55;;;10.77;;
48534;SDS011;34323;52.022;5.686;2023-12-04T03:48:32;21.42;;;10.70;;
48534;SDS011;34323;52.022;5.686;2023-12-04T03:50:58;21.33;;;9.85;;
48534;SDS011;34323;52.022;5.686;2023-12-04T03:53:24;22.92;;;11.35;;
48534;SDS011;34323;52.022;5.686;2023-12-04T03:55:50;21.98;;;10.23;;
48534;SDS011;34323;52.022;5.686;2023-12-04T03:58:15;19.92;;;9.95;;
48534;SDS011;34323;52.022;5.686;2023-12-04T04:00:41;18.77;;;8.80;;
48534;SDS011;34323;52.022;5.686;2023-12-04T04:03:08;18.15;;;10.15;;
48534;SDS011;34323;52.022;5.686;2023-12-04T04:05:35;22.70;;;11.00;;
48534;SDS011;34323;52.022;5.686;2023-12-04T04:08:01;17.23;;;9.20;;
48534;SDS011;34323;52.022;5.686;2023-12-04T04:10:27;17.33;;;9.95;;
48534;SDS011;34323;52.022;5.686;2023-12-04T04:12:52;18.50;;;9.55;;
48534;SDS011;34323;52.022;5.686;2023-12-04T04:15:18;16.25;;;9.27;;
48534;SDS011;34323;52.022;5.686;2023-12-04T04:17:44;18.30;;;9.73;;
48534;SDS011;34323;52.022;5.686;2023-12-04T04:20:10;16.60;;;8.98;;
48534;SDS011;34323;52.022;5.686;2023-12-04T04:22:37;17.83;;;9.10;;
48534;SDS011;34323;52.022;5.686;2023-12-04T04:25:06;17.92;;;9.38;;
48534;SDS011;34323;52.022;5.686;2023-12-04T04:27:32;20.33;;;9.85;;
48534;SDS011;34323;52.022;5.686;2023-12-04T04:29:58;23.30;;;9.80;;
48534;SDS011;34323;52.022;5.686;2023-12-04T04:32:24;16.02;;;8.65;;
48534;SDS011;34323;52.022;5.686;2023-12-04T04:34:50;18.35;;;9.98;;
48534;SDS011;34323;52.022;5.686;2023-12-04T04:37:16;22.60;;;9.40;;
48534;SDS011;34323;52.022;5.686;2023-12-04T04:39:42;14.68;;;8.85;;
48534;SDS011;34323;52.022;5.686;2023-12-04T04:42:07;17.05;;;9.90;;
48534;SDS011;34323;52.022;5.686;2023-12-04T04:44:33;14.38;;;7.82;;
48534;SDS011;34323;52.022;5.686;2023-12-04T04:46:59;20.45;;;9.50;;
48534;SDS011;34323;52.022;5.686;2023-12-04T04:49:24;16.75;;;9.07;;
48534;SDS011;34323;52.022;5.686;2023-12-04T04:51:50;18.63;;;8.82;;
48534;SDS011;34323;52.022;5.686;2023-12-04T04:54:16;20.40;;;9.88;;
48534;SDS011;34323;52.022;5.686;2023-12-04T04:56:41;22.45;;;8.65;;
48534;SDS011;34323;52.022;5.686;2023-12-04T04:59:07;18.00;;;9.40;;
48534;SDS011;34323;52.022;5.686;2023-12-04T05:01:32;15.32;;;8.73;;
48534;SDS011;34323;52.022;5.686;2023-12-04T05:03:58;25.08;;;10.02;;
48534;SDS011;34323;52.022;5.686;2023-12-04T05:06:24;20.10;;;9.73;;
48534;SDS011;34323;52.022;5.686;2023-12-04T05:08:51;15.50;;;8.80;;
48534;SDS011;34323;52.022;5.686;2023-12-04T05:11:17;15.77;;;8.85;;
48534;SDS011;34323;52.022;5.686;2023-12-04T05:13:46;15.30;;;7.75;;
48534;SDS011;34323;52.022;5.686;2023-12-04T05:16:12;15.80;;;8.90;;
48534;SDS011;34323;52.022;5.686;2023-12-04T05:18:38;17.33;;;9.30;;
48534;SDS011;34323;52.022;5.686;2023-12-04T05:21:08;16.95;;;8.98;;
48534;SDS011;34323;52.022;5.686;2023-12-04T05:23:34;15.18;;;8.43;;
48534;SDS011;34323;52.022;5.686;2023-12-04T05:26:00;17.45;;;8.98;;
48534;SDS011;34323;52.022;5.686;2023-12-04T05:28:26;18.90;;;8.55;;
48534;SDS011;34323;52.022;5.686;2023-12-04T05:30:52;14.95;;;8.30;;
48534;SDS011;34323;52.022;5.686;2023-12-04T05:33:17;15.15;;;9.18;;
48534;SDS011;34323;52.022;5.686;2023-12-04T05:35:43;15.75;;;8.85;;
48534;SDS011;34323;52.022;5.686;2023-12-04T05:38:09;17.70;;;8.98;;
48534;SDS011;34323;52.022;5.686;2023-12-04T05:40:34;19.10;;;8.50;;
48534;SDS011;34323;52.022;5.686;2023-12-04T05:43:00;17.90;;;8.57;;
48534;SDS011;34323;52.022;5.686;2023-12-04T05:45:26;19.83;;;9.32;;
48534;SDS011;34323;52.022;5.686;2023-12-04T05:47:51;16.67;;;8.30;;
48534;SDS011;34323;52.022;5.686;2023-12-04T05:50:17;15.30;;;8.98;;
48534;SDS011;34323;52.022;5.686;2023-12-04T05:52:43;18.20;;;9.73;;
48534;SDS011;34323;52.022;5.686;2023-12-04T05:55:09;14.82;;;8.48;;
48534;SDS011;34323;52.022;5.686;2023-12-04T05:57:34;19.40;;;8.95;;
48534;SDS011;34323;52.022;5.686;2023-12-04T06:00:00;20.35;;;9.45;;
48534;SDS011;34323;52.022;5.686;2023-12-04T06:02:25;18.88;;;8.52;;
48534;SDS011;34323;52.022;5.686;2023-12-04T06:04:55;16.60;;;8.77;;
48534;SDS011;34323;52.022;5.686;2023-12-04T06:07:20;15.60;;;7.97;;
48534;SDS011;34323;52.022;5.686;2023-12-04T06:09:46;16.70;;;9.07;;
48534;SDS011;34323;52.022;5.686;2023-12-04T06:12:11;17.23;;;8.25;;
48534;SDS011;34323;52.022;5.686;2023-12-04T06:14:37;16.88;;;8.73;;
48534;SDS011;34323;52.022;5.686;2023-12-04T06:17:03;13.65;;;8.48;;
48534;SDS011;34323;52.022;5.686;2023-12-04T06:19:28;16.23;;;8.10;;
48534;SDS011;34323;52.022;5.686;2023-12-04T06:21:54;16.88;;;9.13;;
48534;SDS011;34323;52.022;5.686;2023-12-04T06:24:20;15.75;;;8.25;;
48534;SDS011;34323;52.022;5.686;2023-12-04T06:26:46;17.30;;;8.82;;
48534;SDS011;34323;52.022;5.686;2023-12-04T06:29:15;16.65;;;8.73;;
48534;SDS011;34323;52.022;5.686;2023-12-04T06:31:41;15.25;;;7.80;;
48534;SDS011;34323;52.022;5.686;2023-12-04T06:34:07;17.23;;;8.68;;
48534;SDS011;34323;52.022;5.686;2023-12-04T06:36:35;16.38;;;8.23;;
48534;SDS011;34323;52.022;5.686;2023-12-04T06:39:04;13.20;;;7.63;;
48534;SDS011;34323;52.022;5.686;2023-12-04T06:41:34;15.25;;;7.97;;
48534;SDS011;34323;52.022;5.686;2023-12-04T06:44:00;13.68;;;7.50;;
48534;SDS011;34323;52.022;5.686;2023-12-04T06:46:26;14.27;;;8.18;;
48534;SDS011;34323;52.022;5.686;2023-12-04T06:48:57;15.38;;;7.93;;
48534;SDS011;34323;52.022;5.686;2023-12-04T06:51:24;13.95;;;7.80;;
48534;SDS011;34323;52.022;5.686;2023-12-04T06:53:50;15.02;;;7.40;;
48534;SDS011;34323;52.022;5.686;2023-12-04T06:56:15;14.20;;;8.00;;
48534;SDS011;34323;52.022;5.686;2023-12-04T06:58:41;15.82;;;7.47;;
48534;SDS011;34323;52.022;5.686;2023-12-04T07:01:07;14.40;;;7.60;;
48534;SDS011;34323;52.022;5.686;2023-12-04T07:03:32;17.33;;;7.72;;
48534;SDS011;34323;52.022;5.686;2023-12-04T07:05:58;16.83;;;7.22;;
48534;SDS011;34323;52.022;5.686;2023-12-04T07:08:24;13.25;;;7.22;;
48534;SDS011;34323;52.022;5.686;2023-12-04T07:10:50;12.60;;;7.60;;
48534;SDS011;34323;52.022;5.686;2023-12-04T07:13:15;13.80;;;7.00;;
48534;SDS011;34323;52.022;5.686;2023-12-04T07:15:41;10.85;;;6.82;;
48534;SDS011;34323;52.022;5.686;2023-12-04T07:18:07;14.55;;;7.10;;
48534;SDS011;34323;52.022;5.686;2023-12-04T07:20:32;13.15;;;6.88;;
48534;SDS011;34323;52.022;5.686;2023-12-04T07:22:58;11.98;;;7.18;;
48534;SDS011;34323;52.022;5.686;2023-12-04T07:25:24;15.95;;;7.35;;
48534;SDS011;34323;52.022;5.686;2023-12-04T07:27:50;11.40;;;6.78;;
48534;SDS011;34323;52.022;5.686;2023-12-04T07:30:16;19.73;;;6.97;;
48534;SDS011;34323;52.022;5.686;2023-12-04T07:32:42;12.18;;;6.55;;
48534;SDS011;34323;52.022;5.686;2023-12-04T07:35:08;13.07;;;6.85;;
48534;SDS011;34323;52.022;5.686;2023-12-04T07:37:33;12.82;;;6.60;;
48534;SDS011;34323;52.022;5.686;2023-12-04T07:39:59;13.20;;;7.20;;
48534;SDS011;34323;52.022;5.686;2023-12-04T07:42:25;12.20;;;6.95;;
48534;SDS011;34323;52.022;5.686;2023-12-04T07:44:50;13.30;;;6.95;;
48534;SDS011;34323;52.022;5.686;2023-12-04T07:47:16;9.52;;;6.00;;
48534;SDS011;34323;52.022;5.686;2023-12-04T07:49:42;10.80;;;6.00;;
48534;SDS011;34323;52.022;5.686;2023-12-04T07:52:09;12.90;;;6.95;;
48534;SDS011;34323;52.022;5.686;2023-12-04T07:54:36;14.68;;;6.90;;
48534;SDS011;34323;52.022;5.686;2023-12-04T07:57:01;10.55;;;6.03;;
48534;SDS011;34323;52.022;5.686;2023-12-04T07:59:27;12.43;;;6.30;;
48534;SDS011;34323;52.022;5.686;2023-12-04T08:01:53;13.70;;;6.43;;
48534;SDS011;34323;52.022;5.686;2023-12-04T08:04:18;12.52;;;6.20;;
48534;SDS011;34323;52.022;5.686;2023-12-04T08:06:44;11.85;;;6.30;;
48534;SDS011;34323;52.022;5.686;2023-12-04T08:09:09;10.88;;;6.45;;
48534;SDS011;34323;52.022;5.686;2023-12-04T08:11:35;13.55;;;7.28;;
48534;SDS011;34323;52.022;5.686;2023-12-04T08:14:02;10.07;;;6.07;;
48534;SDS011;34323;52.022;5.686;2023-12-04T08:16:28;14.02;;;6.88;;
48534;SDS011;34323;52.022;5.686;2023-12-04T08:18:54;11.88;;;6.35;;
48534;SDS011;34323;52.022;5.686;2023-12-04T08:21:20;12.95;;;6.72;;
48534;SDS011;34323;52.022;5.686;2023-12-04T08:23:46;10.68;;;5.93;;
48534;SDS011;34323;52.022;5.686;2023-12-04T08:26:12;11.05;;;6.07;;
48534;SDS011;34323;52.022;5.686;2023-12-04T08:28:38;13.45;;;7.00;;
48534;SDS011;34323;52.022;5.686;2023-12-04T08:31:07;13.35;;;6.63;;
48534;SDS011;34323;52.022;5.686;2023-12-04T08:33:33;11.50;;;6.93;;
48534;SDS011;34323;52.022;5.686;2023-12-04T08:36:02;12.75;;;6.45;;
48534;SDS011;34323;52.022;5.686;2023-12-04T08:38:28;13.65;;;7.10;;
48534;SDS011;34323;52.022;5.686;2023-12-04T08:40:53;11.57;;;6.28;;
48534;SDS011;34323;52.022;5.686;2023-12-04T08:43:19;11.05;;;5.88;;
48534;SDS011;34323;52.022;5.686;2023-12-04T08:45:45;12.52;;;7.15;;
48534;SDS011;34323;52.022;5.686;2023-12-04T08:48:10;9.45;;;6.00;;
48534;SDS011;34323;52.022;5.686;2023-12-04T08:50:36;13.57;;;6.97;;
48534;SDS011;34323;52.022;5.686;2023-12-04T08:53:03;11.10;;;6.95;;
48534;SDS011;34323;52.022;5.686;2023-12-04T08:55:29;12.18;;;6.45;;
48534;SDS011;34323;52.022;5.686;2023-12-04T08:57:54;13.07;;;6.78;;
48534;SDS011;34323;52.022;5.686;2023-12-04T09:00:20;13.05;;;7.05;;
48534;SDS011;34323;52.022;5.686;2023-12-04T09:02:47;10.23;;;6.18;;
48534;SDS011;34323;52.022;5.686;2023-12-04T09:05:13;12.10;;;6.00;;
48534;SDS011;34323;52.022;5.686;2023-12-04T09:07:39;10.25;;;5.78;;
48534;SDS011;34323;52.022;5.686;2023-12-04T09:10:05;10.25;;;5.88;;
48534;SDS011;34323;52.022;5.686;2023-12-04T09:12:31;10.02;;;6.05;;
48534;SDS011;34323;52.022;5.686;2023-12-04T09:14:56;9.68;;;5.90;;
48534;SDS011;34323;52.022;5.686;2023-12-04T09:17:22;14.52;;;7.07;;
48534;SDS011;34323;52.022;5.686;2023-12-04T09:19:48;10.77;;;5.88;;
48534;SDS011;34323;52.022;5.686;2023-12-04T09:22:14;11.02;;;6.03;;
48534;SDS011;34323;52.022;5.686;2023-12-04T09:24:39;12.70;;;5.60;;
48534;SDS011;34323;52.022;5.686;2023-12-04T09:27:05;11.95;;;6.00;;
48534;SDS011;34323;52.022;5.686;2023-12-04T09:29:32;10.25;;;5.82;;
48534;SDS011;34323;52.022;5.686;2023-12-04T09:31:58;11.32;;;6.45;;
48534;SDS011;34323;52.022;5.686;2023-12-04T09:34:24;13.35;;;6.20;;
48534;SDS011;34323;52.022;5.686;2023-12-04T09:36:50;8.90;;;5.78;;
48534;SDS011;34323;52.022;5.686;2023-12-04T09:39:16;9.20;;;5.82;;
48534;SDS011;34323;52.022;5.686;2023-12-04T09:41:42;11.70;;;6.28;;
48534;SDS011;34323;52.022;5.686;2023-12-04T09:44:08;18.75;;;6.30;;
48534;SDS011;34323;52.022;5.686;2023-12-04T09:46:35;11.10;;;6.20;;
48534;SDS011;34323;52.022;5.686;2023-12-04T09:49:01;13.00;;;5.88;;
48534;SDS011;34323;52.022;5.686;2023-12-04T09:51:27;10.25;;;5.80;;
48534;SDS011;34323;52.022;5.686;2023-12-04T09:53:53;9.80;;;5.85;;
48534;SDS011;34323;52.022;5.686;2023-12-04T09:56:22;10.70;;;6.32;;
48534;SDS011;34323;52.022;5.686;2023-12-04T09:58:51;13.65;;;5.95;;
48534;SDS011;34323;52.022;5.686;2023-12-04T10:01:20;9.23;;;5.15;;
48534;SDS011;34323;52.022;5.686;2023-12-04T10:03:46;8.68;;;5.32;;
48534;SDS011;34323;52.022;5.686;2023-12-04T10:06:14;9.55;;;5.28;;
48534;SDS011;34323;52.022;5.686;2023-12-04T10:08:43;9.38;;;5.28;;
48534;SDS011;34323;52.022;5.686;2023-12-04T10:11:10;11.07;;;6.45;;
48534;SDS011;34323;52.022;5.686;2023-12-04T10:13:36;11.27;;;5.60;;
48534;SDS011;34323;52.022;5.686;2023-12-04T10:16:01;8.55;;;5.28;;
48534;SDS011;34323;52.022;5.686;2023-12-04T10:18:28;11.15;;;6.20;;
48534;SDS011;34323;52.022;5.686;2023-12-04T10:20:55;11.40;;;5.50;;
48534;SDS011;34323;52.022;5.686;2023-12-04T10:23:22;9.45;;;5.40;;
48534;SDS011;34323;52.022;5.686;2023-12-04T10:25:48;12.57;;;5.90;;
48534;SDS011;34323;52.022;5.686;2023-12-04T10:28:17;10.20;;;5.53;;
48534;SDS011;34323;52.022;5.686;2023-12-04T10:30:43;12.80;;;7.00;;
48534;SDS011;34323;52.022;5.686;2023-12-04T10:33:11;12.73;;;6.30;;
48534;SDS011;34323;52.022;5.686;2023-12-04T10:35:38;12.13;;;6.63;;
48534;SDS011;34323;52.022;5.686;2023-12-04T10:38:07;12.25;;;6.60;;
48534;SDS011;34323;52.022;5.686;2023-12-04T10:40:35;12.15;;;5.95;;
48534;SDS011;34323;52.022;5.686;2023-12-04T10:43:11;14.85;;;7.05;;
48534;SDS011;34323;52.022;5.686;2023-12-04T10:45:42;10.93;;;5.95;;
48534;SDS011;34323;52.022;5.686;2023-12-04T10:48:08;13.15;;;6.65;;
48534;SDS011;34323;52.022;5.686;2023-12-04T10:50:39;12.43;;;6.90;;
48534;SDS011;34323;52.022;5.686;2023-12-04T10:53:07;9.40;;;6.18;;
48534;SDS011;34323;52.022;5.686;2023-12-04T10:55:35;11.48;;;6.97;;
48534;SDS011;34323;52.022;5.686;2023-12-04T10:58:02;12.18;;;6.88;;
48534;SDS011;34323;52.022;5.686;2023-12-04T11:00:48;10.88;;;6.43;;
48534;SDS011;34323;52.022;5.686;2023-12-04T11:03:25;13.50;;;7.10;;
48534;SDS011;34323;52.022;5.686;2023-12-04T11:05:59;12.30;;;6.93;;
48534;SDS011;34323;52.022;5.686;2023-12-04T11:08:26;15.25;;;7.25;;
48534;SDS011;34323;52.022;5.686;2023-12-04T11:11:05;15.40;;;7.47;;
48534;SDS011;34323;52.022;5.686;2023-12-04T11:13:37;17.60;;;6.68;;
48534;SDS011;34323;52.022;5.686;2023-12-04T11:16:12;13.68;;;7.90;;
48534;SDS011;34323;52.022;5.686;2023-12-04T11:18:47;14.10;;;7.30;;
48534;SDS011;34323;52.022;5.686;2023-12-04T11:21:16;12.93;;;7.20;;
48534;SDS011;34323;52.022;5.686;2023-12-04T11:23:44;11.13;;;6.18;;
48534;SDS011;34323;52.022;5.686;2023-12-04T11:26:10;12.35;;;7.05;;
48534;SDS011;34323;52.022;5.686;2023-12-04T11:28:36;14.02;;;7.90;;
48534;SDS011;34323;52.022;5.686;2023-12-04T11:31:03;13.35;;;7.43;;
48534;SDS011;34323;52.022;5.686;2023-12-04T11:33:36;13.15;;;7.15;;
48534;SDS011;34323;52.022;5.686;2023-12-04T11:36:12;15.60;;;7.57;;
48534;SDS011;34323;52.022;5.686;2023-12-04T11:38:42;15.90;;;8.13;;
48534;SDS011;34323;52.022;5.686;2023-12-04T11:41:16;18.13;;;7.97;;
48534;SDS011;34323;52.022;5.686;2023-12-04T11:43:46;11.48;;;7.03;;
48534;SDS011;34323;52.022;5.686;2023-12-04T11:46:13;16.02;;;7.05;;
48534;SDS011;34323;52.022;5.686;2023-12-04T11:48:47;16.58;;;7.35;;
48534;SDS011;34323;52.022;5.686;2023-12-04T11:51:12;14.80;;;7.20;;
48534;SDS011;34323;52.022;5.686;2023-12-04T11:53:59;13.38;;;7.43;;
48534;SDS011;34323;52.022;5.686;2023-12-04T11:56:24;11.48;;;6.30;;
48534;SDS011;34323;52.022;5.686;2023-12-04T11:58:50;12.73;;;7.75;;
48534;SDS011;34323;52.022;5.686;2023-12-04T12:01:17;9.38;;;6.28;;
48534;SDS011;34323;52.022;5.686;2023-12-04T12:03:44;12.70;;;7.13;;
48534;SDS011;34323;52.022;5.686;2023-12-04T12:06:19;13.75;;;6.93;;
48534;SDS011;34323;52.022;5.686;2023-12-04T12:08:45;13.90;;;7.32;;
48534;SDS011;34323;52.022;5.686;2023-12-04T12:11:11;12.32;;;7.50;;
48534;SDS011;34323;52.022;5.686;2023-12-04T12:13:40;14.98;;;7.80;;
48534;SDS011;34323;52.022;5.686;2023-12-04T12:16:06;12.75;;;7.60;;
48534;SDS011;34323;52.022;5.686;2023-12-04T12:18:34;12.98;;;7.35;;
48534;SDS011;34323;52.022;5.686;2023-12-04T12:20:59;14.68;;;7.68;;
48534;SDS011;34323;52.022;5.686;2023-12-04T12:23:25;11.93;;;7.22;;
48534;SDS011;34323;52.022;5.686;2023-12-04T12:25:52;13.32;;;8.18;;
48534;SDS011;34323;52.022;5.686;2023-12-04T12:28:17;15.43;;;8.43;;
48534;SDS011;34323;52.022;5.686;2023-12-04T12:30:44;11.90;;;7.13;;
48534;SDS011;34323;52.022;5.686;2023-12-04T12:33:12;12.48;;;7.65;;
48534;SDS011;34323;52.022;5.686;2023-12-04T12:35:39;14.70;;;7.68;;
48534;SDS011;34323;52.022;5.686;2023-12-04T12:38:04;12.18;;;7.70;;
48534;SDS011;34323;52.022;5.686;2023-12-04T12:40:30;14.25;;;7.95;;
48534;SDS011;34323;52.022;5.686;2023-12-04T12:43:06;14.75;;;7.05;;
48534;SDS011;34323;52.022;5.686;2023-12-04T12:45:42;11.57;;;7.22;;
48534;SDS011;34323;52.022;5.686;2023-12-04T12:48:15;15.40;;;7.43;;
48534;SDS011;34323;52.022;5.686;2023-12-04T12:50:42;17.77;;;7.70;;
48534;SDS011;34323;52.022;5.686;2023-12-04T12:53:10;12.48;;;7.18;;
48534;SDS011;34323;52.022;5.686;2023-12-04T12:55:43;12.70;;;7.03;;
48534;SDS011;34323;52.022;5.686;2023-12-04T12:58:12;16.08;;;7.80;;
48534;SDS011;34323;52.022;5.686;2023-12-04T13:00:39;13.40;;;7.88;;
48534;SDS011;34323;52.022;5.686;2023-12-04T13:03:17;14.13;;;8.07;;
48534;SDS011;34323;52.022;5.686;2023-12-04T13:05:44;12.50;;;7.60;;
48534;SDS011;34323;52.022;5.686;2023-12-04T13:08:09;13.55;;;7.07;;
48534;SDS011;34323;52.022;5.686;2023-12-04T13:10:40;11.60;;;7.63;;
48534;SDS011;34323;52.022;5.686;2023-12-04T13:13:12;10.98;;;7.18;;
48534;SDS011;34323;52.022;5.686;2023-12-04T13:15:39;13.35;;;7.13;;
48534;SDS011;34323;52.022;5.686;2023-12-04T13:18:06;11.15;;;6.78;;
48534;SDS011;34323;52.022;5.686;2023-12-04T13:20:32;13.35;;;7.28;;
48534;SDS011;34323;52.022;5.686;2023-12-04T13:22:59;12.90;;;7.28;;
48534;SDS011;34323;52.022;5.686;2023-12-04T13:25:25;13.18;;;7.40;;
48534;SDS011;34323;52.022;5.686;2023-12-04T13:27:51;14.10;;;8.13;;
48534;SDS011;34323;52.022;5.686;2023-12-04T13:30:16;15.98;;;9.10;;
48534;SDS011;34323;52.022;5.686;2023-12-04T13:32:42;12.57;;;7.65;;
48534;SDS011;34323;52.022;5.686;2023-12-04T13:35:08;12.77;;;7.05;;
48534;SDS011;34323;52.022;5.686;2023-12-04T13:37:33;14.07;;;7.97;;
48534;SDS011;34323;52.022;5.686;2023-12-04T13:40:04;11.57;;;6.72;;
48534;SDS011;34323;52.022;5.686;2023-12-04T13:42:33;12.15;;;7.55;;
48534;SDS011;34323;52.022;5.686;2023-12-04T13:45:18;12.65;;;7.15;;
48534;SDS011;34323;52.022;5.686;2023-12-04T13:47:46;12.55;;;7.20;;
48534;SDS011;34323;52.022;5.686;2023-12-04T13:50:12;14.07;;;7.72;;
48534;SDS011;34323;52.022;5.686;2023-12-04T13:52:38;15.30;;;7.75;;
48534;SDS011;34323;52.022;5.686;2023-12-04T13:55:04;11.27;;;7.25;;
48534;SDS011;34323;52.022;5.686;2023-12-04T13:57:44;12.65;;;7.32;;
48534;SDS011;34323;52.022;5.686;2023-12-04T14:00:34;13.45;;;7.03;;
48534;SDS011;34323;52.022;5.686;2023-12-04T14:03:00;13.25;;;7.32;;
48534;SDS011;34323;52.022;5.686;2023-12-04T14:05:30;14.70;;;7.22;;
48534;SDS011;34323;52.022;5.686;2023-12-04T14:07:56;11.65;;;7.25;;
48534;SDS011;34323;52.022;5.686;2023-12-04T14:10:23;14.02;;;7.50;;
48534;SDS011;34323;52.022;5.686;2023-12-04T14:12:51;11.48;;;7.00;;
48534;SDS011;34323;52.022;5.686;2023-12-04T14:15:16;14.30;;;7.65;;
48534;SDS011;34323;52.022;5.686;2023-12-04T14:17:42;15.02;;;7.30;;
48534;SDS011;34323;52.022;5.686;2023-12-04T14:20:08;11.88;;;7.10;;
48534;SDS011;34323;52.022;5.686;2023-12-04T14:22:38;16.52;;;7.28;;
48534;SDS011;34323;52.022;5.686;2023-12-04T14:25:06;15.93;;;7.78;;
48534;SDS011;34323;52.022;5.686;2023-12-04T14:27:33;12.38;;;6.50;;
48534;SDS011;34323;52.022;5.686;2023-12-04T14:30:00;13.13;;;7.13;;